createdAt,value
2019-03-05T00:01:52.341Z,90.98
2019-03-05T00:04:21.456Z,90.95
2019-03-05T00:06:50.520Z,91.15
2019-03-05T00:09:23.630Z,90.93
2019-03-05T00:11:52.800Z,90.35
2019-03-05T00:14:23.755Z,90.69
2019-03-05T00:16:52.833Z,90.28
2019-03-05T00:19:21.925Z,88.23
2019-03-05T00:21:51.010Z,88.50
2019-03-05T00:24:55.634Z,88.66
2019-03-05T00:27:24.741Z,89.12
2019-03-05T00:30:26.365Z,88.83
2019-03-05T00:32:59.439Z,88.07
2019-03-05T00:36:04.622Z,87.94
2019-03-05T00:39:17.611Z,88.35
2019-03-05T00:42:20.343Z,88.03
2019-03-05T00:45:14.028Z,88.01
2019-03-05T00:47:55.434Z,87.35
2019-03-05T00:51:03.037Z,87.45
2019-03-05T00:54:11.782Z,87.59
2019-03-05T00:56:59.128Z,87.07
2019-03-05T00:59:54.462Z,86.65
2019-03-05T01:02:45.834Z,87.03
2019-03-05T01:06:09.726Z,87.55
2019-03-05T01:08:38.808Z,87.02
2019-03-05T01:11:08.282Z,87.14
2019-03-05T01:13:37.359Z,86.83
2019-03-05T01:16:06.638Z,86.51
2019-03-05T01:18:35.714Z,87.19
2019-03-05T01:21:04.818Z,87.37
2019-03-05T01:23:33.898Z,87.02
2019-03-05T01:26:03.000Z,86.80
2019-03-05T01:28:32.114Z,86.33
2019-03-05T01:31:32.555Z,86.80
2019-03-05T01:34:09.174Z,86.51
2019-03-05T01:36:41.794Z,86.45
2019-03-05T01:39:25.574Z,86.36
2019-03-05T01:41:54.666Z,86.06
2019-03-05T01:44:23.732Z,86.32
2019-03-05T01:46:52.829Z,85.89
2019-03-05T01:49:21.901Z,85.62
2019-03-05T01:51:51.006Z,85.46
2019-03-05T01:54:20.084Z,85.10
2019-03-05T01:56:49.176Z,85.47
2019-03-05T01:59:18.244Z,85.95
2019-03-05T02:01:47.344Z,86.04
2019-03-05T02:04:16.435Z,86.53
2019-03-05T02:06:45.545Z,86.43
2019-03-05T02:09:14.726Z,86.73
2019-03-05T02:11:44.098Z,86.74
2019-03-05T02:14:13.196Z,87.19
2019-03-05T02:16:42.276Z,87.73
2019-03-05T02:19:47.968Z,87.71
2019-03-05T02:22:37.397Z,87.98
2019-03-05T02:25:46.019Z,87.04
2019-03-05T02:28:59.240Z,86.90
2019-03-05T02:32:09.484Z,86.25
2019-03-05T02:35:00.048Z,86.00
2019-03-05T02:38:05.620Z,86.44
2019-03-05T02:41:20.486Z,86.26
2019-03-05T02:44:51.228Z,86.85
2019-03-05T02:47:43.430Z,86.45
2019-03-05T02:50:53.828Z,87.22
2019-03-05T02:53:59.782Z,87.52
2019-03-05T02:56:51.917Z,87.18
2019-03-05T02:59:21.529Z,86.85
2019-03-05T03:02:12.348Z,86.74
2019-03-05T03:04:44.290Z,86.62
2019-03-05T03:07:13.367Z,86.01
2019-03-05T03:10:14.879Z,86.09
2019-03-05T03:12:44.491Z,86.32
2019-03-05T03:15:17.712Z,85.81
2019-03-05T03:17:47.172Z,85.56
2019-03-05T03:20:17.832Z,85.99
2019-03-05T03:22:46.989Z,86.22
2019-03-05T03:25:20.277Z,85.81
2019-03-05T03:27:49.438Z,84.94
2019-03-05T03:30:21.636Z,85.11
2019-03-05T03:32:50.859Z,85.45
2019-03-05T03:35:20.033Z,85.99
2019-03-05T03:37:49.108Z,86.09
2019-03-05T03:40:20.049Z,86.07
2019-03-05T03:42:49.259Z,85.69
2019-03-05T03:45:20.330Z,85.59
2019-03-05T03:47:49.450Z,85.54
2019-03-05T03:50:18.507Z,85.35
2019-03-05T03:52:47.597Z,85.41
2019-03-05T03:55:16.825Z,85.49
2019-03-05T03:57:45.921Z,85.83
2019-03-05T04:00:20.125Z,85.58
2019-03-05T04:02:49.249Z,85.58
2019-03-05T04:05:18.458Z,85.63
2019-03-05T04:07:47.555Z,85.43
2019-03-05T04:10:16.661Z,85.30
2019-03-05T04:12:45.764Z,85.34
2019-03-05T04:15:16.530Z,84.20
2019-03-05T04:17:45.627Z,83.85
2019-03-05T04:20:18.753Z,84.60
2019-03-05T04:22:47.852Z,83.83
2019-03-05T04:25:16.922Z,84.28
2019-03-05T04:27:46.109Z,84.23
2019-03-05T04:30:15.219Z,83.82
2019-03-05T04:32:44.309Z,83.03
2019-03-05T04:35:13.395Z,83.86
2019-03-05T04:37:42.490Z,83.70
2019-03-05T04:40:12.094Z,83.32
2019-03-05T04:42:41.192Z,83.45
2019-03-05T04:45:34.677Z,83.69
2019-03-05T04:48:03.784Z,82.42
2019-03-05T04:50:51.827Z,82.54
2019-03-05T04:53:20.913Z,82.88
2019-03-05T04:55:49.990Z,82.98
2019-03-05T04:58:19.082Z,82.93
2019-03-05T05:00:48.258Z,82.78
2019-03-05T05:03:17.389Z,83.16
2019-03-05T05:05:46.480Z,82.95
2019-03-05T05:08:15.573Z,82.99
2019-03-05T05:10:44.646Z,82.44
2019-03-05T05:13:13.743Z,82.59
2019-03-05T05:15:42.815Z,82.72
2019-03-05T05:18:11.908Z,82.37
2019-03-05T05:20:40.982Z,82.60
2019-03-05T05:23:10.060Z,82.29
2019-03-05T05:25:39.155Z,82.54
2019-03-05T05:28:08.253Z,82.64
2019-03-05T05:30:38.556Z,82.76
2019-03-05T05:33:07.668Z,82.67
2019-03-05T05:35:36.766Z,82.84
2019-03-05T05:38:05.994Z,83.04
2019-03-05T05:40:39.201Z,83.17
2019-03-05T05:43:11.023Z,83.38
2019-03-05T05:45:47.477Z,83.69
2019-03-05T05:48:16.545Z,83.66
2019-03-05T05:50:45.645Z,83.24
2019-03-05T05:53:14.730Z,83.74
2019-03-05T05:55:43.917Z,84.61
2019-03-05T05:58:12.994Z,84.37
2019-03-05T06:00:44.318Z,84.46
2019-03-05T06:03:13.384Z,84.40
2019-03-05T06:05:42.483Z,84.33
2019-03-05T06:08:11.561Z,83.92
2019-03-05T06:10:40.740Z,84.68
2019-03-05T06:13:09.818Z,84.02
2019-03-05T06:15:38.925Z,84.06
2019-03-05T06:18:07.991Z,84.54
2019-03-05T06:20:37.085Z,84.10
2019-03-05T06:23:06.157Z,84.07
2019-03-05T06:25:35.261Z,84.04
2019-03-05T06:28:04.352Z,83.95
2019-03-05T06:30:33.972Z,83.96
2019-03-05T06:33:03.069Z,84.14
2019-03-05T06:35:32.164Z,85.11
2019-03-05T06:38:01.238Z,84.71
2019-03-05T06:40:30.485Z,84.84
2019-03-05T06:42:59.563Z,85.21
2019-03-05T06:45:28.637Z,84.89
2019-03-05T06:47:57.753Z,84.92
2019-03-05T06:50:26.866Z,84.49
2019-03-05T06:52:55.941Z,84.20
2019-03-05T06:55:25.021Z,84.58
2019-03-05T06:57:54.117Z,84.53
2019-03-05T07:00:40.254Z,84.65
2019-03-05T07:03:09.691Z,85.23
2019-03-05T07:06:14.007Z,85.73
2019-03-05T07:08:46.678Z,85.76
2019-03-05T07:12:09.011Z,85.49
2019-03-05T07:15:26.809Z,85.33
2019-03-05T07:18:04.199Z,84.26
2019-03-05T07:21:16.681Z,83.61
2019-03-05T07:24:26.995Z,83.34
2019-03-05T07:26:56.089Z,82.44
2019-03-05T07:29:25.215Z,82.58
2019-03-05T07:31:54.305Z,82.15
2019-03-05T07:34:26.894Z,82.64
2019-03-05T07:36:55.990Z,81.92
2019-03-05T07:39:25.109Z,80.88
2019-03-05T07:41:54.223Z,79.60
2019-03-05T07:44:23.301Z,77.82
2019-03-05T07:46:52.385Z,77.81
2019-03-05T07:49:21.471Z,78.05
2019-03-05T07:51:50.825Z,79.87
2019-03-05T07:54:19.922Z,81.51
2019-03-05T07:56:48.997Z,82.10
2019-03-05T07:59:18.084Z,82.93
2019-03-05T08:01:47.163Z,83.62
2019-03-05T08:04:16.262Z,84.13
2019-03-05T08:06:45.564Z,84.70
2019-03-05T08:09:33.167Z,85.17
2019-03-05T08:12:41.825Z,85.79
2019-03-05T08:15:30.654Z,87.47
2019-03-05T08:17:59.758Z,88.88
2019-03-05T08:20:28.839Z,88.36
2019-03-05T08:22:57.930Z,88.93
2019-03-05T08:25:27.010Z,89.20
2019-03-05T08:27:56.108Z,90.09
2019-03-05T08:30:25.209Z,89.47
2019-03-05T08:32:54.279Z,88.86
2019-03-05T08:35:23.379Z,89.21
2019-03-05T08:37:52.470Z,88.66
2019-03-05T08:40:21.546Z,89.79
2019-03-05T08:42:50.624Z,90.32
2019-03-05T08:45:28.794Z,90.36
2019-03-05T08:47:50.509Z,90.03
2019-03-05T08:50:19.605Z,90.64
2019-03-05T08:52:48.676Z,90.56
2019-03-05T08:55:17.770Z,90.75
2019-03-05T08:57:46.845Z,91.61
2019-03-05T09:00:17.190Z,91.47
2019-03-05T09:02:48.879Z,90.39
2019-03-05T09:05:17.837Z,91.56
2019-03-05T09:07:46.924Z,91.66
2019-03-05T09:10:16.476Z,91.64
2019-03-05T09:12:45.659Z,90.77
2019-03-05T09:15:16.137Z,91.50
2019-03-05T09:17:45.422Z,90.89
2019-03-05T09:20:15.769Z,91.78
2019-03-05T09:22:44.813Z,92.25
2019-03-05T09:25:14.675Z,91.56
2019-03-05T09:27:44.073Z,91.32
2019-03-05T09:30:15.969Z,91.63
2019-03-05T09:32:45.046Z,91.93
2019-03-05T09:35:14.181Z,91.65
2019-03-05T09:37:43.258Z,91.97
2019-03-05T09:40:17.477Z,92.06
2019-03-05T09:42:46.662Z,92.42
2019-03-05T09:45:16.943Z,92.52
2019-03-05T09:47:46.009Z,92.72
2019-03-05T09:50:16.133Z,91.80
2019-03-05T09:52:54.380Z,92.19
2019-03-05T09:55:18.093Z,91.03
2019-03-05T09:57:49.203Z,91.12
2019-03-05T10:00:19.534Z,91.48
2019-03-05T10:02:48.628Z,90.79
2019-03-05T10:05:17.733Z,91.20
2019-03-05T10:07:46.931Z,90.90
2019-03-05T10:10:18.969Z,90.39
2019-03-05T10:12:48.186Z,89.81
2019-03-05T10:15:18.658Z,90.51
2019-03-05T10:17:49.865Z,90.84
2019-03-05T10:20:20.026Z,89.94
2019-03-05T10:22:49.761Z,89.23
2019-03-05T10:25:20.081Z,89.96
2019-03-05T10:27:49.357Z,88.84
2019-03-05T10:30:24.689Z,89.47
2019-03-05T10:32:54.665Z,90.51
2019-03-05T10:35:25.449Z,90.28
2019-03-05T10:37:56.043Z,90.33
2019-03-05T10:40:26.826Z,89.56
2019-03-05T10:43:07.807Z,87.39
2019-03-05T10:45:27.906Z,87.28
2019-03-05T10:47:57.014Z,87.87
2019-03-05T10:50:26.994Z,87.43
2019-03-05T10:52:56.169Z,87.93
2019-03-05T10:55:26.523Z,87.88
2019-03-05T10:57:55.765Z,88.32
2019-03-05T11:00:30.900Z,86.97
2019-03-05T11:03:00.026Z,86.77
2019-03-05T11:05:31.860Z,87.47
2019-03-05T11:08:00.966Z,85.78
2019-03-05T11:10:30.985Z,86.97
2019-03-05T11:13:01.189Z,86.04
2019-03-05T11:15:30.548Z,83.79
2019-03-05T11:17:59.978Z,85.37
2019-03-05T11:20:29.070Z,85.03
2019-03-05T11:22:58.173Z,85.13
2019-03-05T11:25:27.249Z,85.44
2019-03-05T11:27:56.354Z,84.07
2019-03-05T11:30:35.579Z,84.65
2019-03-05T11:32:57.087Z,85.45
2019-03-05T11:35:27.283Z,86.42
2019-03-05T11:37:56.359Z,86.05
2019-03-05T11:40:25.649Z,85.91
2019-03-05T11:42:54.786Z,85.56
2019-03-05T11:45:25.554Z,87.10
2019-03-05T11:47:54.949Z,86.43
2019-03-05T11:50:24.773Z,85.73
2019-03-05T11:52:54.314Z,85.83
2019-03-05T11:55:23.529Z,85.10
2019-03-05T11:57:52.606Z,84.61
2019-03-05T12:00:37.821Z,83.64
2019-03-05T12:03:07.119Z,83.97
2019-03-05T12:05:36.328Z,83.69
2019-03-05T12:08:05.523Z,83.98
2019-03-05T12:10:34.623Z,84.00
2019-03-05T12:13:03.708Z,84.33
2019-03-05T12:15:32.833Z,84.77
2019-03-05T12:18:01.914Z,84.88
2019-03-05T12:20:31.013Z,86.41
2019-03-05T12:23:02.235Z,86.42
2019-03-05T12:25:30.918Z,86.39
2019-03-05T12:28:09.728Z,85.11
2019-03-05T12:30:30.864Z,84.59
2019-03-05T12:32:59.938Z,84.83
2019-03-05T12:35:29.036Z,85.95
2019-03-05T12:37:58.108Z,86.65
2019-03-05T12:40:27.232Z,87.05
2019-03-05T12:42:56.514Z,86.92
2019-03-05T12:45:25.713Z,86.46
2019-03-05T12:47:54.788Z,85.46
2019-03-05T12:50:23.972Z,85.26
2019-03-05T12:52:53.558Z,85.15
2019-03-05T12:55:23.551Z,83.21
2019-03-05T12:57:52.743Z,81.68
2019-03-05T13:00:22.789Z,79.91
2019-03-05T13:02:51.906Z,80.84
2019-03-05T13:05:21.101Z,80.45
2019-03-05T13:07:52.581Z,80.74
2019-03-05T13:10:21.802Z,80.31
2019-03-05T13:12:50.879Z,80.26
2019-03-05T13:15:22.452Z,78.05
2019-03-05T13:17:52.741Z,77.43
2019-03-05T13:20:22.596Z,75.11
2019-03-05T13:22:52.718Z,78.10
2019-03-05T13:25:24.265Z,79.10
2019-03-05T13:27:52.872Z,78.99
2019-03-05T13:30:25.902Z,77.39
2019-03-05T13:32:54.017Z,79.50
2019-03-05T13:35:25.446Z,80.10
2019-03-05T13:37:54.818Z,77.46
2019-03-05T13:40:25.392Z,75.56
2019-03-05T13:42:54.492Z,71.62
2019-03-05T13:45:24.620Z,69.65
2019-03-05T13:48:20.517Z,70.09
2019-03-05T13:51:47.370Z,68.62
2019-03-05T13:54:48.563Z,69.58
2019-03-05T13:57:55.125Z,70.20
2019-03-05T14:00:24.220Z,61.31
2019-03-05T14:03:01.360Z,53.40
2019-03-05T14:06:05.907Z,55.00
2019-03-05T14:09:20.890Z,49.57
2019-03-05T14:11:53.442Z,48.26
2019-03-05T14:14:27.131Z,48.47
2019-03-05T14:17:01.251Z,55.98
2019-03-05T14:19:30.328Z,64.79
2019-03-05T14:21:59.441Z,60.41
2019-03-05T14:24:28.617Z,65.20
2019-03-05T14:26:57.809Z,68.16
2019-03-05T14:29:29.272Z,69.04
2019-03-05T14:31:57.743Z,70.68
2019-03-05T14:34:26.844Z,70.42
2019-03-05T14:36:56.020Z,71.16
2019-03-05T14:39:31.819Z,70.84
2019-03-05T14:42:01.837Z,72.82
2019-03-05T14:44:39.410Z,74.04
2019-03-05T14:47:03.054Z,74.05
2019-03-05T14:49:32.250Z,72.61
2019-03-05T14:52:01.329Z,71.56
2019-03-05T14:54:30.428Z,71.10
2019-03-05T14:56:59.494Z,71.57
2019-03-05T14:59:28.625Z,72.41
2019-03-05T15:01:57.706Z,73.37
2019-03-05T15:04:26.812Z,73.30
2019-03-05T15:06:55.910Z,71.67
2019-03-05T15:09:25.057Z,72.03
2019-03-05T15:11:54.149Z,72.45
2019-03-05T15:14:23.237Z,73.47
2019-03-05T15:16:52.294Z,74.75
2019-03-05T15:19:21.981Z,77.51
2019-03-05T15:21:51.130Z,78.68
2019-03-05T15:24:20.229Z,79.24
2019-03-05T15:26:49.335Z,80.01
2019-03-05T15:29:18.441Z,80.66
2019-03-05T15:31:47.533Z,81.95
2019-03-05T15:34:16.645Z,82.56
2019-03-05T15:36:45.706Z,83.52
2019-03-05T15:39:15.018Z,85.23
2019-03-05T15:41:45.894Z,86.01
2019-03-05T15:44:14.869Z,86.34
2019-03-05T15:46:44.000Z,86.08
2019-03-05T15:49:13.057Z,85.25
2019-03-05T15:51:42.182Z,84.99
2019-03-05T15:54:11.240Z,83.70
2019-03-05T15:56:40.365Z,80.47
2019-03-05T15:59:09.448Z,74.73
2019-03-05T16:01:38.546Z,72.17
2019-03-05T16:04:07.622Z,69.52
2019-03-05T16:06:36.718Z,69.03
2019-03-05T16:09:16.453Z,70.60
2019-03-05T16:11:45.550Z,71.42
2019-03-05T16:14:14.629Z,69.47
2019-03-05T16:16:43.728Z,72.10
2019-03-05T16:19:16.558Z,75.53
2019-03-05T16:21:43.631Z,79.01
2019-03-05T16:24:12.701Z,81.55
2019-03-05T16:26:41.818Z,82.31
2019-03-05T16:29:10.997Z,82.42
2019-03-05T16:31:59.057Z,82.47
2019-03-05T16:34:50.297Z,82.98
2019-03-05T16:37:28.226Z,83.21
2019-03-05T16:40:05.120Z,82.35
2019-03-05T16:43:01.316Z,82.35
2019-03-05T16:45:37.126Z,82.70
2019-03-05T16:48:12.975Z,82.10
2019-03-05T16:51:01.019Z,82.29
2019-03-05T16:53:49.092Z,82.41
2019-03-05T16:56:30.276Z,82.63
2019-03-05T16:59:16.815Z,82.99
2019-03-05T17:02:02.714Z,82.97
2019-03-05T17:04:43.506Z,83.19
2019-03-05T17:07:34.448Z,83.60
2019-03-05T17:10:21.206Z,83.56
2019-03-05T17:12:50.307Z,83.83
2019-03-05T17:15:19.572Z,83.85
2019-03-05T17:17:48.716Z,84.31
2019-03-05T17:20:17.745Z,84.83
2019-03-05T17:22:46.843Z,84.34
2019-03-05T17:25:16.897Z,84.97
2019-03-05T17:27:46.012Z,85.21
2019-03-05T17:30:15.976Z,85.38
2019-03-05T17:32:45.106Z,85.95
2019-03-05T17:35:14.711Z,86.47
2019-03-05T17:37:43.837Z,86.59
2019-03-05T17:40:13.545Z,86.58
2019-03-05T17:42:42.619Z,85.46
2019-03-05T17:45:14.589Z,85.26
2019-03-05T17:47:43.671Z,84.95
2019-03-05T17:50:13.016Z,85.05
2019-03-05T17:52:42.097Z,85.20
2019-03-05T17:55:13.571Z,85.20
2019-03-05T17:57:42.642Z,85.38
2019-03-05T18:00:15.094Z,85.32
2019-03-05T18:02:44.176Z,85.56
2019-03-05T18:05:13.569Z,85.59
2019-03-05T18:07:42.645Z,86.04
2019-03-05T18:10:11.891Z,86.61
2019-03-05T18:12:41.151Z,86.70
2019-03-05T18:15:10.601Z,86.97
2019-03-05T18:17:39.717Z,87.43
2019-03-05T18:20:10.111Z,87.66
2019-03-05T18:22:39.185Z,88.28
2019-03-05T18:25:08.953Z,88.11
2019-03-05T18:27:38.044Z,88.21
2019-03-05T18:30:10.213Z,88.35
2019-03-05T18:32:39.285Z,88.63
2019-03-05T18:35:08.960Z,87.65
2019-03-05T18:37:38.861Z,87.79
2019-03-05T18:40:10.181Z,88.59
2019-03-05T18:42:39.509Z,88.80
2019-03-05T18:45:11.941Z,89.19
2019-03-05T18:47:41.055Z,89.60
2019-03-05T18:50:10.724Z,90.00
2019-03-05T18:52:39.833Z,90.53
2019-03-05T18:55:09.645Z,90.93
2019-03-05T18:57:38.733Z,91.42
2019-03-05T19:00:09.878Z,92.00
2019-03-05T19:02:38.972Z,92.36
2019-03-05T19:05:08.568Z,92.83
2019-03-05T19:07:37.645Z,93.09
2019-03-05T19:10:10.560Z,92.98
2019-03-05T19:12:40.400Z,93.42
2019-03-05T19:15:11.567Z,93.68
2019-03-05T19:17:41.747Z,93.43
2019-03-05T19:20:13.164Z,93.81
2019-03-05T19:22:43.225Z,93.74
2019-03-05T19:25:17.597Z,94.17
2019-03-05T19:27:47.926Z,94.62
2019-03-05T19:30:22.568Z,94.71
2019-03-05T19:32:53.575Z,95.03
2019-03-05T19:35:23.834Z,95.17
2019-03-05T19:37:54.047Z,95.83
2019-03-05T19:40:25.892Z,95.94
2019-03-05T19:42:55.995Z,95.97
2019-03-05T19:45:26.655Z,95.37
2019-03-05T19:47:56.394Z,94.79
2019-03-05T19:50:26.223Z,94.64
2019-03-05T19:52:57.428Z,94.56
2019-03-05T19:55:27.088Z,94.63
2019-03-05T19:58:08.233Z,95.07
2019-03-05T20:00:39.850Z,95.39
2019-03-05T20:03:10.259Z,95.54
2019-03-05T20:05:40.183Z,95.69
2019-03-05T20:08:11.487Z,96.02
2019-03-05T20:10:41.542Z,95.91
2019-03-05T20:13:11.891Z,95.84
2019-03-05T20:15:41.788Z,96.11
2019-03-05T20:18:12.633Z,96.47
2019-03-05T20:20:42.625Z,96.50
2019-03-05T20:23:12.891Z,96.90
2019-03-05T20:25:42.661Z,97.16
2019-03-05T20:28:12.366Z,96.98
2019-03-05T20:30:42.847Z,96.87
2019-03-05T20:33:12.526Z,96.79
2019-03-05T20:35:42.341Z,96.70
2019-03-05T20:38:11.695Z,96.90
2019-03-05T20:40:42.400Z,96.92
2019-03-05T20:43:12.040Z,96.58
2019-03-05T20:45:41.514Z,96.38
2019-03-05T20:48:11.449Z,96.41
2019-03-05T20:50:41.084Z,96.38
2019-03-05T20:53:11.377Z,96.31
2019-03-05T20:55:40.550Z,96.47
2019-03-05T20:58:10.519Z,96.10
2019-03-05T21:00:42.224Z,95.88
2019-03-05T21:03:11.829Z,95.95
2019-03-05T21:05:42.197Z,95.93
2019-03-05T21:08:11.896Z,95.91
2019-03-05T21:10:42.064Z,95.85
2019-03-05T21:13:12.415Z,95.77
2019-03-05T21:15:42.332Z,95.75
2019-03-05T21:18:12.336Z,95.80
2019-03-05T21:20:41.711Z,95.81
2019-03-05T21:23:11.304Z,95.65
2019-03-05T21:25:41.813Z,95.74
2019-03-05T21:28:11.920Z,95.80
2019-03-05T21:30:41.019Z,95.96
2019-03-05T21:33:10.110Z,95.82
2019-03-05T21:35:39.366Z,95.72
2019-03-05T21:38:08.498Z,95.60
2019-03-05T21:40:37.715Z,95.62
2019-03-05T21:43:06.818Z,95.68
2019-03-05T21:45:36.882Z,95.85
2019-03-05T21:48:06.405Z,96.01
2019-03-05T21:50:35.478Z,96.04
2019-03-05T21:53:04.793Z,95.99
2019-03-05T21:55:33.894Z,96.35
2019-03-05T21:58:03.001Z,96.46
2019-03-05T22:00:32.198Z,96.28
2019-03-05T22:03:01.347Z,96.36
2019-03-05T22:05:31.137Z,96.18
2019-03-05T22:08:00.236Z,96.22
2019-03-05T22:10:29.418Z,96.15
2019-03-05T22:12:58.513Z,96.35
2019-03-05T22:15:27.636Z,96.21
2019-03-05T22:17:56.729Z,96.21
2019-03-05T22:20:25.802Z,96.10
2019-03-05T22:22:54.911Z,96.09
2019-03-05T22:25:24.038Z,96.46
2019-03-05T22:27:53.215Z,96.64
2019-03-05T22:30:24.200Z,96.51
2019-03-05T22:32:53.322Z,96.33
2019-03-05T22:35:22.716Z,96.59
2019-03-05T22:37:51.814Z,96.87
2019-03-05T22:40:20.915Z,96.86
2019-03-05T22:42:50.031Z,96.71
2019-03-05T22:45:20.602Z,97.08
2019-03-05T22:47:49.977Z,97.44
2019-03-05T22:50:20.067Z,97.67
2019-03-05T22:52:49.169Z,97.74
2019-03-05T22:55:18.258Z,97.88
2019-03-05T22:57:47.378Z,98.09
2019-03-05T23:00:50.212Z,98.04
2019-03-05T23:03:20.793Z,98.03
2019-03-05T23:05:50.149Z,98.13
2019-03-05T23:08:21.059Z,97.72
2019-03-05T23:10:50.231Z,98.11
2019-03-05T23:13:19.571Z,98.31
2019-03-05T23:15:48.982Z,98.51
2019-03-05T23:18:18.100Z,98.82
2019-03-05T23:20:48.194Z,98.95
2019-03-05T23:23:17.298Z,98.93
2019-03-05T23:25:46.384Z,98.77
2019-03-05T23:28:15.503Z,98.51
2019-03-05T23:30:44.587Z,98.71
2019-03-05T23:33:13.793Z,98.44
2019-03-05T23:35:42.875Z,98.43
2019-03-05T23:38:11.979Z,98.83
2019-03-05T23:40:41.069Z,99.06
2019-03-05T23:43:10.155Z,98.94
2019-03-05T23:45:39.291Z,98.44
2019-03-05T23:48:08.376Z,98.68
2019-03-05T23:50:37.997Z,99.34
2019-03-05T23:53:07.086Z,99.65
2019-03-05T23:55:36.268Z,100.00
2019-03-05T23:58:05.351Z,99.98
